Time;durP1;ratioP1;P1;durP2;ratioP2;P2;SDS_P1;SDS_P2;PMS_P1;PMS_P2;Temp;Humidity;BMP_temperature;BMP_pressure;BME280_temperature;BME280_humidity;BME280_pressure;Samples;Min_cycle;Max_cycle;Signal;HPM_P1;HPM_P2
2023/09/16 00:00:08;;;;;;;8.00;3.60;;;15.80;99.90;;;;;;5131504;28;20502;-49
2023/09/16 00:02:37;;;;;;;7.50;3.67;;;15.80;99.90;;;;;;5131323;27;20767;-45
2023/09/16 00:05:04;;;;;;;8.73;3.85;;;15.70;99.90;;;;;;5131526;28;20019;-53
2023/09/16 00:07:31;;;;;;;5.95;3.55;;;15.70;99.90;;;;;;5131484;27;20488;-54
2023/09/16 00:09:57;;;;;;;4.57;3.00;;;15.60;99.90;;;;;;5133081;27;20067;-50
2023/09/16 00:12:26;;;;;;;6.43;3.63;;;15.60;99.90;;;;;;5135710;27;20438;-52
2023/09/16 00:14:52;;;;;;;7.22;3.50;;;15.60;99.90;;;;;;5135692;27;20038;-53
2023/09/16 00:17:18;;;;;;;7.25;3.78;;;15.50;99.90;;;;;;5135632;27;20094;-47
2023/09/16 00:19:44;;;;;;;10.77;3.67;;;15.50;99.90;;;;;;5135723;27;20051;-53
2023/09/16 00:22:10;;;;;;;6.93;3.70;;;15.50;99.90;;;;;;5135682;27;20035;-47
2023/09/16 00:24:40;;;;;;;6.03;3.75;;;15.50;99.90;;;;;;5135614;27;20419;-50
2023/09/16 00:27:09;;;;;;;7.60;3.78;;;15.40;99.90;;;;;;5135368;27;20026;-47
2023/09/16 00:29:35;;;;;;;7.25;3.97;;;15.40;99.90;;;;;;5135389;27;20028;-43
2023/09/16 00:32:04;;;;;;;6.43;3.47;;;15.40;99.90;;;;;;5135254;27;20026;-47
2023/09/16 00:34:30;;;;;;;7.57;3.40;;;15.40;99.90;;;;;;5135432;27;20016;-47
2023/09/16 00:36:56;;;;;;;6.63;3.30;;;15.30;99.90;;;;;;5135193;27;20035;-54
2023/09/16 00:39:22;;;;;;;4.75;3.20;;;15.30;99.90;;;;;;5135306;27;20023;-47
2023/09/16 00:41:47;;;;;;;5.95;3.28;;;15.30;99.90;;;;;;5135176;27;20392;-49
2023/09/16 00:44:13;;;;;;;4.80;2.90;;;15.30;99.90;;;;;;5135096;27;20023;-47
2023/09/16 00:46:39;;;;;;;7.47;2.90;;;15.30;99.90;;;;;;5135147;27;20034;-50
2023/09/16 00:49:05;;;;;;;5.43;3.30;;;15.20;99.90;;;;;;5135018;27;20433;-47
2023/09/16 00:51:30;;;;;;;6.03;3.00;;;15.20;99.90;;;;;;5135053;27;20468;-53
2023/09/16 00:53:57;;;;;;;6.13;3.25;;;15.10;99.90;;;;;;5123120;27;20027;-50
2023/09/16 00:56:27;;;;;;;5.47;3.10;;;15.00;99.90;;;;;;5114049;27;20471;-51
2023/09/16 00:58:57;;;;;;;6.10;3.50;;;15.00;99.90;;;;;;5134808;27;20118;-50
2023/09/16 01:01:24;;;;;;;5.30;3.20;;;15.10;99.90;;;;;;5134974;27;20023;-53
2023/09/16 01:03:50;;;;;;;5.35;3.25;;;15.00;99.90;;;;;;5134802;27;20023;-47
2023/09/16 01:06:16;;;;;;;6.47;3.40;;;15.00;99.90;;;;;;5134637;27;20025;-45
2023/09/16 01:08:44;;;;;;;5.45;3.03;;;15.00;99.90;;;;;;5134756;27;20023;-50
2023/09/16 01:11:10;;;;;;;6.95;3.70;;;15.00;99.90;;;;;;5132152;27;20031;-51
2023/09/16 01:13:37;;;;;;;7.32;4.30;;;15.00;99.90;;;;;;5125233;27;20023;-45
2023/09/16 01:16:31;;;;;;;6.30;3.80;;;15.00;99.90;;;;;;5117447;27;20024;-49
2023/09/16 01:19:05;;;;;;;6.35;3.85;;;15.00;99.90;;;;;;5106633;27;20023;-46
2023/09/16 01:21:31;;;;;;;7.75;4.47;;;15.00;99.90;;;;;;5121345;27;20027;-56
2023/09/16 01:24:20;;;;;;;6.38;4.10;;;15.00;99.90;;;;;;5134355;27;20031;-52
2023/09/16 01:26:47;;;;;;;8.85;4.40;;;15.10;99.90;;;;;;5122693;27;20031;-48
2023/09/16 01:29:14;;;;;;;8.18;4.65;;;15.10;99.90;;;;;;5119759;27;20035;-49
2023/09/16 01:31:41;;;;;;;7.20;4.07;;;15.20;99.90;;;;;;5134267;27;20039;-47
2023/09/16 01:34:35;;;;;;;8.88;5.10;;;15.20;99.90;;;;;;5134225;27;20015;-53
2023/09/16 01:37:02;;;;;;;6.75;4.72;;;15.30;99.90;;;;;;5126126;27;20489;-51
2023/09/16 01:39:30;;;;;;;10.02;5.10;;;15.30;99.90;;;;;;5134134;27;20080;-52
2023/09/16 01:41:57;;;;;;;8.35;4.55;;;15.30;99.90;;;;;;5134136;27;20007;-53
2023/09/16 01:44:22;;;;;;;7.82;5.35;;;15.30;99.90;;;;;;5134040;27;20042;-47
2023/09/16 01:46:48;;;;;;;9.52;4.95;;;15.40;99.90;;;;;;5119215;27;20015;-47
2023/09/16 01:49:13;;;;;;;13.15;5.90;;;15.40;99.90;;;;;;5133836;27;20081;-49
2023/09/16 01:51:39;;;;;;;11.15;5.70;;;15.40;99.90;;;;;;5133702;27;20333;-50
2023/09/16 01:54:05;;;;;;;8.75;5.40;;;15.40;99.90;;;;;;5133920;27;20551;-52
2023/09/16 01:56:30;;;;;;;13.27;5.35;;;15.40;99.90;;;;;;5133589;27;20023;-47
2023/09/16 01:58:56;;;;;;;10.98;6.13;;;15.40;99.90;;;;;;5133834;27;20678;-57
2023/09/16 02:01:22;;;;;;;11.77;5.50;;;15.40;99.90;;;;;;5133670;27;20080;-57
2023/09/16 02:03:47;;;;;;;10.52;5.80;;;15.50;99.90;;;;;;5133445;27;20111;-51
2023/09/16 02:06:13;;;;;;;12.00;5.82;;;15.50;99.90;;;;;;5115173;27;20102;-48
2023/09/16 02:08:38;;;;;;;12.10;5.53;;;15.50;99.90;;;;;;5133386;27;20027;-47
2023/09/16 02:11:05;;;;;;;10.32;5.30;;;15.50;99.90;;;;;;5133393;27;20048;-53
2023/09/16 02:13:32;;;;;;;8.82;5.13;;;15.50;99.90;;;;;;5133330;27;20023;-49
2023/09/16 02:15:59;;;;;;;8.95;4.78;;;15.50;99.90;;;;;;5133296;27;20102;-49
2023/09/16 02:18:24;;;;;;;9.10;4.47;;;15.50;99.90;;;;;;5133283;27;20028;-53
2023/09/16 02:20:50;;;;;;;7.70;4.55;;;15.50;99.90;;;;;;5118726;27;20029;-46
2023/09/16 02:23:15;;;;;;;13.63;5.32;;;15.50;99.90;;;;;;5115362;27;20015;-55
2023/09/16 02:25:41;;;;;;;8.93;4.97;;;15.40;99.90;;;;;;5133183;27;20536;-50
2023/09/16 02:28:07;;;;;;;8.93;5.25;;;15.50;99.90;;;;;;5133235;27;20425;-52
2023/09/16 02:30:32;;;;;;;10.82;4.95;;;15.50;99.90;;;;;;5132900;27;20039;-51
2023/09/16 02:32:58;;;;;;;7.72;4.80;;;15.40;99.90;;;;;;5132376;27;20036;-50
2023/09/16 02:35:24;;;;;;;7.57;4.53;;;15.40;99.90;;;;;;5096468;28;20023;-56
2023/09/16 02:37:49;;;;;;;8.63;4.43;;;15.40;99.90;;;;;;5111984;28;20031;-46
2023/09/16 02:40:15;;;;;;;8.95;5.13;;;15.30;99.90;;;;;;5111837;28;20476;-50
2023/09/16 02:42:41;;;;;;;7.93;5.00;;;15.30;99.90;;;;;;5111967;28;20042;-43
2023/09/16 02:45:07;;;;;;;9.95;5.35;;;15.30;99.90;;;;;;5111931;28;20023;-43
2023/09/16 02:47:33;;;;;;;10.77;6.30;;;15.30;99.90;;;;;;5111959;28;20407;-43
2023/09/16 02:50:00;;;;;;;10.43;5.32;;;15.30;99.90;;;;;;5111985;28;20043;-57
2023/09/16 02:52:25;;;;;;;10.45;5.78;;;15.30;99.90;;;;;;5111872;28;20092;-55
2023/09/16 02:54:51;;;;;;;12.48;5.95;;;15.30;99.90;;;;;;5112160;28;20059;-52
2023/09/16 02:57:17;;;;;;;11.15;5.93;;;15.30;99.90;;;;;;5093613;28;20457;-55
2023/09/16 02:59:42;;;;;;;10.00;6.15;;;15.30;99.90;;;;;;5111619;28;20026;-53
2023/09/16 03:02:08;;;;;;;10.05;5.32;;;15.40;99.90;;;;;;5117352;27;20016;-44
2023/09/16 03:04:33;;;;;;;8.90;5.00;;;15.30;99.90;;;;;;5111596;28;20023;-56
2023/09/16 03:06:59;;;;;;;9.95;5.60;;;15.30;99.90;;;;;;5111604;28;20024;-52
2023/09/16 03:09:25;;;;;;;10.77;5.97;;;15.30;99.90;;;;;;5111574;28;20374;-51
2023/09/16 03:11:50;;;;;;;13.40;5.93;;;15.30;99.90;;;;;;5111405;28;20031;-50
2023/09/16 03:14:16;;;;;;;10.15;5.63;;;15.30;99.90;;;;;;5111183;28;20428;-51
2023/09/16 03:16:42;;;;;;;12.30;6.15;;;15.30;99.90;;;;;;5111167;28;20068;-52
2023/09/16 03:19:08;;;;;;;10.65;5.82;;;15.30;99.90;;;;;;5111152;28;20030;-53
2023/09/16 03:21:34;;;;;;;12.55;5.93;;;15.40;99.90;;;;;;5121515;27;20067;-50
2023/09/16 03:23:59;;;;;;;12.82;6.13;;;15.40;99.90;;;;;;5131811;27;20019;-44
2023/09/16 03:26:25;;;;;;;10.30;6.55;;;15.40;99.90;;;;;;5131900;27;20031;-51
2023/09/16 03:28:53;;;;;;;13.65;6.28;;;15.50;99.90;;;;;;5131912;27;20031;-55
2023/09/16 03:31:19;;;;;;;12.03;6.17;;;15.40;99.90;;;;;;5131719;27;20034;-53
2023/09/16 03:33:44;;;;;;;12.93;6.53;;;15.40;99.90;;;;;;5131878;27;20023;-49
2023/09/16 03:36:10;;;;;;;10.02;5.95;;;15.40;99.90;;;;;;5131775;27;20449;-51
2023/09/16 03:38:47;;;;;;;12.00;6.13;;;15.30;99.90;;;;;;5131566;27;20492;-50
2023/09/16 03:41:15;;;;;;;13.48;6.22;;;15.30;99.90;;;;;;5131558;27;20018;-56
2023/09/16 03:43:40;;;;;;;11.65;6.45;;;15.40;99.90;;;;;;5131012;27;20020;-46
2023/09/16 03:46:06;;;;;;;14.70;7.45;;;15.40;99.90;;;;;;5131221;27;20088;-44
2023/09/16 03:48:31;;;;;;;11.25;6.72;;;15.40;99.90;;;;;;5131730;27;20031;-47
2023/09/16 03:50:57;;;;;;;13.68;6.55;;;15.50;99.90;;;;;;5131787;27;20046;-50
2023/09/16 03:53:25;;;;;;;11.38;6.60;;;15.50;99.90;;;;;;5131518;27;20019;-55
2023/09/16 03:55:52;;;;;;;11.70;6.25;;;15.50;99.90;;;;;;5131505;27;20030;-54
2023/09/16 03:58:17;;;;;;;12.35;6.13;;;15.50;99.90;;;;;;5131216;27;20027;-49
2023/09/16 04:00:43;;;;;;;11.07;6.43;;;15.40;99.90;;;;;;5131671;27;20099;-54
2023/09/16 04:03:09;;;;;;;12.13;6.18;;;15.40;99.90;;;;;;5131223;27;20463;-48
2023/09/16 04:05:34;;;;;;;10.95;6.30;;;15.40;99.90;;;;;;5131465;28;20031;-58
2023/09/16 04:08:00;;;;;;;8.95;6.15;;;15.30;99.90;;;;;;5116895;28;20020;-51
2023/09/16 04:10:26;;;;;;;11.55;6.28;;;15.40;99.90;;;;;;5131360;28;20053;-55
2023/09/16 04:12:51;;;;;;;12.30;6.53;;;15.30;99.90;;;;;;5131309;27;20019;-44
2023/09/16 04:15:17;;;;;;;12.40;7.07;;;15.30;99.90;;;;;;5131131;27;20024;-43
2023/09/16 04:17:42;;;;;;;12.52;6.80;;;15.40;99.90;;;;;;5131400;28;20126;-44
2023/09/16 04:20:09;;;;;;;12.98;6.68;;;15.30;99.90;;;;;;5131251;27;20027;-47
2023/09/16 04:22:35;;;;;;;11.95;6.45;;;15.30;99.90;;;;;;5131204;28;20022;-49
2023/09/16 04:25:01;;;;;;;10.32;6.30;;;15.30;99.90;;;;;;5131388;28;20023;-51
2023/09/16 04:27:27;;;;;;;13.85;8.02;;;15.30;99.90;;;;;;5131179;27;20043;-56
2023/09/16 04:29:52;;;;;;;11.45;6.57;;;15.30;99.90;;;;;;5131268;27;20059;-46
2023/09/16 04:32:18;;;;;;;14.52;6.88;;;15.20;99.90;;;;;;5131469;27;20031;-52
2023/09/16 04:34:44;;;;;;;10.15;5.75;;;15.20;99.90;;;;;;5131138;28;20026;-44
2023/09/16 04:37:09;;;;;;;12.20;6.55;;;15.20;99.90;;;;;;5130942;27;20683;-53
2023/09/16 04:39:35;;;;;;;11.35;6.60;;;15.10;99.90;;;;;;5131107;27;20019;-52
2023/09/16 04:42:02;;;;;;;10.80;7.03;;;15.10;99.90;;;;;;5131052;27;20047;-54
2023/09/16 04:44:28;;;;;;;10.55;7.00;;;15.00;99.90;;;;;;5114870;28;20110;-44
2023/09/16 04:46:54;;;;;;;13.75;7.13;;;15.10;99.90;;;;;;5110584;28;20162;-50
2023/09/16 04:49:23;;;;;;;12.13;7.03;;;15.00;99.90;;;;;;5110128;28;20019;-55
2023/09/16 04:51:49;;;;;;;12.07;7.13;;;15.10;99.90;;;;;;5110302;28;20035;-47
2023/09/16 04:54:15;;;;;;;11.80;6.68;;;15.10;99.90;;;;;;5110196;28;20023;-53
2023/09/16 04:56:40;;;;;;;12.55;7.55;;;15.10;99.90;;;;;;5113110;28;20492;-46
2023/09/16 04:59:06;;;;;;;12.68;7.22;;;15.10;99.90;;;;;;5114169;28;20052;-48
2023/09/16 05:01:33;;;;;;;13.70;7.03;;;15.10;99.90;;;;;;5114301;28;20080;-49
2023/09/16 05:03:59;;;;;;;13.63;7.18;;;15.00;99.90;;;;;;5114321;27;20556;-52
2023/09/16 05:06:25;;;;;;;11.50;6.60;;;15.00;99.90;;;;;;5114002;28;20100;-42
2023/09/16 05:08:53;;;;;;;12.45;7.05;;;15.00;99.90;;;;;;5114079;28;20059;-42
2023/09/16 05:11:18;;;;;;;15.75;7.68;;;15.00;99.90;;;;;;5113986;28;20622;-51
2023/09/16 05:13:45;;;;;;;12.85;6.53;;;15.00;99.90;;;;;;5119330;27;20087;-54
2023/09/16 05:16:11;;;;;;;13.93;6.32;;;14.90;99.90;;;;;;5115639;27;20589;-56
2023/09/16 05:18:37;;;;;;;15.50;7.07;;;14.90;99.90;;;;;;5113831;28;20015;-50
2023/09/16 05:21:03;;;;;;;11.90;6.57;;;14.90;99.90;;;;;;5119530;27;20049;-49
2023/09/16 05:23:33;;;;;;;12.27;6.70;;;14.90;99.90;;;;;;5134440;27;20031;-49
2023/09/16 05:25:59;;;;;;;9.90;5.78;;;14.90;99.90;;;;;;5125662;27;20023;-52
2023/09/16 05:28:25;;;;;;;12.82;6.43;;;14.90;99.90;;;;;;5113566;28;20077;-48
2023/09/16 05:30:53;;;;;;;9.50;5.95;;;14.90;99.90;;;;;;5113388;28;20056;-51
2023/09/16 05:33:19;;;;;;;10.32;5.88;;;14.90;99.90;;;;;;5113349;28;20042;-48
2023/09/16 05:35:45;;;;;;;12.63;6.38;;;14.90;99.90;;;;;;5113431;28;20480;-48
2023/09/16 05:38:10;;;;;;;10.75;6.15;;;14.90;99.90;;;;;;5113348;28;20059;-52
2023/09/16 05:40:37;;;;;;;10.43;6.25;;;14.90;99.90;;;;;;5113436;28;20373;-51
2023/09/16 05:43:02;;;;;;;8.90;5.82;;;14.90;99.90;;;;;;5113379;28;20097;-49
2023/09/16 05:45:28;;;;;;;15.30;6.97;;;14.80;99.90;;;;;;5113339;27;20464;-43
2023/09/16 05:47:55;;;;;;;13.15;6.63;;;14.80;99.90;;;;;;5113353;28;20543;-48
2023/09/16 05:50:20;;;;;;;13.45;7.10;;;14.80;99.90;;;;;;5113167;28;20131;-48
2023/09/16 05:52:46;;;;;;;14.60;7.43;;;14.90;99.90;;;;;;5112982;27;20050;-54
2023/09/16 05:55:11;;;;;;;14.90;6.97;;;15.00;99.90;;;;;;5095056;27;20156;-58
2023/09/16 05:57:37;;;;;;;14.15;7.07;;;15.00;99.90;;;;;;5113321;28;20024;-54
2023/09/16 06:00:03;;;;;;;13.40;7.38;;;15.10;99.90;;;;;;5112986;27;20479;-50
2023/09/16 06:02:29;;;;;;;12.73;6.93;;;15.20;99.90;;;;;;5112885;28;20034;-53
2023/09/16 06:04:55;;;;;;;15.75;7.22;;;15.20;99.90;;;;;;5112921;28;20028;-55
2023/09/16 06:07:20;;;;;;;16.05;7.32;;;15.30;99.90;;;;;;5117872;27;20030;-45
2023/09/16 06:09:46;;;;;;;15.90;7.50;;;15.30;99.90;;;;;;5118200;27;20369;-58
2023/09/16 06:12:11;;;;;;;14.15;7.82;;;15.30;99.90;;;;;;5112757;28;20050;-51
2023/09/16 06:14:38;;;;;;;13.55;6.55;;;15.40;99.90;;;;;;5112858;28;20058;-51
2023/09/16 06:17:04;;;;;;;14.90;7.97;;;15.40;99.90;;;;;;5112705;28;20016;-51
2023/09/16 06:19:30;;;;;;;14.88;6.95;;;15.50;99.90;;;;;;5112756;27;20108;-47
2023/09/16 06:21:55;;;;;;;14.10;6.35;;;15.50;99.90;;;;;;5125841;27;20418;-46
2023/09/16 06:24:22;;;;;;;10.93;6.28;;;15.60;99.90;;;;;;5114753;27;20030;-57
2023/09/16 06:26:47;;;;;;;13.20;7.10;;;15.60;99.90;;;;;;5133416;27;20864;-45
2023/09/16 06:29:13;;;;;;;14.88;7.35;;;15.60;99.90;;;;;;5132935;27;20102;-53
2023/09/16 06:31:39;;;;;;;12.25;7.20;;;15.60;99.90;;;;;;5133109;27;20050;-50
2023/09/16 06:34:05;;;;;;;16.55;7.53;;;15.70;99.90;;;;;;5132911;27;20506;-52
2023/09/16 06:36:31;;;;;;;14.50;8.15;;;15.70;99.90;;;;;;5113265;27;20115;-44
2023/09/16 06:38:57;;;;;;;13.82;7.50;;;15.90;99.90;;;;;;5112233;27;20484;-56
2023/09/16 06:41:22;;;;;;;15.10;7.90;;;15.90;99.90;;;;;;5112268;28;20031;-50
2023/09/16 06:43:48;;;;;;;12.93;7.40;;;16.00;99.90;;;;;;5112090;28;20024;-45
2023/09/16 06:46:14;;;;;;;13.52;7.90;;;16.00;99.90;;;;;;5112057;28;20110;-58
2023/09/16 06:48:39;;;;;;;11.32;7.13;;;16.10;99.90;;;;;;5112151;28;20039;-53
2023/09/16 06:51:05;;;;;;;12.23;7.47;;;16.20;99.90;;;;;;5111884;28;20074;-51
2023/09/16 06:53:31;;;;;;;10.35;6.88;;;16.20;99.90;;;;;;5111889;28;20388;-50
2023/09/16 06:55:57;;;;;;;12.45;7.13;;;16.30;99.90;;;;;;5111996;28;20114;-52
2023/09/16 06:58:23;;;;;;;10.93;6.85;;;16.40;99.90;;;;;;5111536;28;20107;-48
2023/09/16 07:00:48;;;;;;;12.57;6.80;;;16.50;99.90;;;;;;5113424;27;20617;-56
2023/09/16 07:03:14;;;;;;;12.68;6.07;;;16.60;99.90;;;;;;5116773;27;20399;-49
2023/09/16 07:05:46;;;;;;;9.85;5.22;;;16.60;99.90;;;;;;5111607;28;20024;-58
2023/09/16 07:08:11;;;;;;;13.18;6.13;;;16.50;99.90;;;;;;5111604;28;20490;-47
2023/09/16 07:10:37;;;;;;;11.40;6.03;;;16.60;99.90;;;;;;5111737;27;20040;-52
2023/09/16 07:13:02;;;;;;;10.60;5.45;;;16.60;99.90;;;;;;5111839;28;20031;-47
2023/09/16 07:15:28;;;;;;;10.98;5.47;;;16.80;99.90;;;;;;5111015;28;20024;-49
2023/09/16 07:17:54;;;;;;;13.65;7.20;;;16.90;99.90;;;;;;5109976;28;20015;-53
2023/09/16 07:20:20;;;;;;;8.80;5.53;;;17.20;99.90;;;;;;5111235;28;20089;-48
2023/09/16 07:22:45;;;;;;;13.43;6.85;;;17.50;99.90;;;;;;5131478;27;20090;-50
2023/09/16 07:25:11;;;;;;;15.40;7.07;;;17.90;99.90;;;;;;5132078;27;20027;-48
2023/09/16 07:27:36;;;;;;;7.32;5.18;;;18.40;99.90;;;;;;5132042;27;20098;-53
2023/09/16 07:30:02;;;;;;;10.95;6.15;;;18.60;99.90;;;;;;5131938;27;20065;-52
2023/09/16 07:32:28;;;;;;;8.77;5.05;;;18.90;99.90;;;;;;5131769;27;20072;-44
2023/09/16 07:34:54;;;;;;;11.25;5.47;;;19.20;99.90;;;;;;5130786;27;20545;-53
2023/09/16 07:37:20;;;;;;;13.55;4.82;;;19.60;99.90;;;;;;5129713;27;20047;-56
2023/09/16 07:39:47;;;;;;;8.07;4.63;;;19.90;99.90;;;;;;5130784;27;20011;-55
2023/09/16 07:42:12;;;;;;;7.88;4.45;;;20.20;99.90;;;;;;5130684;27;20027;-48
2023/09/16 07:44:38;;;;;;;8.30;4.18;;;20.40;99.90;;;;;;5131312;27;20019;-51
2023/09/16 07:47:03;;;;;;;8.85;4.50;;;20.60;99.90;;;;;;5131558;27;20067;-55
2023/09/16 07:49:29;;;;;;;8.55;4.05;;;20.90;99.90;;;;;;5131411;27;20038;-53
2023/09/16 07:51:55;;;;;;;6.95;3.95;;;21.20;99.90;;;;;;5131519;27;20437;-44
2023/09/16 07:54:20;;;;;;;9.55;3.72;;;21.60;99.90;;;;;;5131644;27;20037;-47
2023/09/16 07:56:46;;;;;;;5.25;3.30;;;22.00;99.90;;;;;;5131468;27;20042;-44
2023/09/16 07:59:17;;;;;;;6.18;3.25;;;22.50;99.90;;;;;;5130731;27;20027;-48
2023/09/16 08:01:43;;;;;;;4.72;2.80;;;22.80;99.90;;;;;;5131465;27;20019;-47
2023/09/16 08:04:08;;;;;;;5.78;3.50;;;23.00;99.90;;;;;;5131420;27;20513;-53
2023/09/16 08:06:34;;;;;;;6.75;2.75;;;23.30;99.90;;;;;;5131209;27;20015;-49
2023/09/16 08:09:00;;;;;;;6.80;2.75;;;23.60;99.90;;;;;;5131436;28;20019;-58
2023/09/16 08:11:25;;;;;;;5.88;2.70;;;24.00;99.90;;;;;;5131067;27;20035;-54
2023/09/16 08:13:51;;;;;;;3.75;2.42;;;24.50;99.90;;;;;;5131431;27;20030;-53
2023/09/16 08:16:17;;;;;;;4.22;2.50;;;24.70;99.90;;;;;;5131508;27;20031;-56
2023/09/16 08:18:42;;;;;;;4.15;2.33;;;24.80;99.90;;;;;;5130657;27;20042;-49
2023/09/16 08:21:08;;;;;;;4.57;2.53;;;24.90;99.90;;;;;;5117163;27;20015;-50
2023/09/16 08:23:33;;;;;;;3.40;2.25;;;25.20;99.90;;;;;;5131343;27;20019;-56
2023/09/16 08:25:59;;;;;;;4.18;2.08;;;25.80;99.90;;;;;;5131306;27;20019;-48
2023/09/16 08:28:24;;;;;;;3.40;2.13;;;26.20;99.90;;;;;;5131233;28;20058;-49
2023/09/16 08:30:51;;;;;;;4.88;2.17;;;26.60;99.90;;;;;;5132662;27;20538;-56
2023/09/16 08:33:16;;;;;;;3.65;2.10;;;27.00;99.90;;;;;;5135331;27;20023;-44
2023/09/16 08:35:42;;;;;;;3.88;1.77;;;27.30;99.90;;;;;;5135382;27;20425;-55
2023/09/16 08:38:08;;;;;;;3.28;1.75;;;27.50;99.90;;;;;;5135092;27;20509;-44
2023/09/16 08:40:34;;;;;;;2.63;1.52;;;27.80;99.90;;;;;;5135247;27;20106;-51
2023/09/16 08:43:03;;;;;;;3.17;1.90;;;28.30;99.90;;;;;;5135443;27;20074;-55
2023/09/16 08:45:34;;;;;;;2.53;1.50;;;28.60;99.90;;;;;;5135268;27;20027;-48
2023/09/16 08:48:03;;;;;;;4.10;1.75;;;28.90;99.90;;;;;;5134990;27;20030;-50
2023/09/16 08:50:31;;;;;;;4.32;1.70;;;29.20;99.90;;;;;;5135111;27;20118;-51
2023/09/16 08:53:07;;;;;;;2.72;1.70;;;29.20;99.90;;;;;;5135172;27;20073;-51
2023/09/16 08:55:34;;;;;;;3.58;1.98;;;29.30;99.90;;;;;;5134957;27;20076;-47
2023/09/16 08:58:06;;;;;;;3.80;2.47;;;29.00;99.90;;;;;;5134866;27;20020;-52
2023/09/16 09:00:32;;;;;;;5.22;2.05;;;28.80;99.90;;;;;;5134873;27;20068;-50
2023/09/16 09:02:58;;;;;;;3.88;2.17;;;29.20;99.90;;;;;;5134826;27;20428;-50
2023/09/16 09:05:25;;;;;;;2.70;1.58;;;29.00;99.90;;;;;;5134899;27;20041;-55
2023/09/16 09:07:51;;;;;;;6.28;3.10;;;29.20;99.90;;;;;;5134951;27;20471;-50
2023/09/16 09:10:17;;;;;;;4.03;2.22;;;29.80;99.90;;;;;;5134602;27;20038;-49
2023/09/16 09:12:43;;;;;;;3.83;2.03;;;30.30;99.90;;;;;;5134604;27;20441;-50
2023/09/16 09:15:14;;;;;;;3.63;1.88;;;30.60;98.80;;;;;;5134777;27;20027;-56
2023/09/16 09:17:54;;;;;;;3.30;1.77;;;30.70;98.70;;;;;;5134882;27;20105;-47
2023/09/16 09:20:24;;;;;;;5.45;2.30;;;30.70;97.20;;;;;;5120338;27;20032;-52
2023/09/16 09:22:51;;;;;;;3.67;2.50;;;30.10;96.70;;;;;;5120599;27;20077;-48
2023/09/16 09:25:21;;;;;;;4.65;2.28;;;30.10;98.90;;;;;;5134438;27;20015;-47
2023/09/16 09:27:49;;;;;;;3.25;1.92;;;30.10;97.40;;;;;;5134332;27;20509;-54
2023/09/16 09:30:15;;;;;;;3.78;1.77;;;30.10;98.60;;;;;;5134339;27;20540;-46
2023/09/16 09:32:45;;;;;;;5.10;1.60;;;30.00;98.40;;;;;;5134354;27;20023;-52
2023/09/16 09:35:11;;;;;;;2.08;1.48;;;30.20;98.00;;;;;;5134561;27;20030;-53
2023/09/16 09:37:38;;;;;;;3.67;1.70;;;30.30;98.10;;;;;;5133880;27;20408;-56
2023/09/16 09:40:11;;;;;;;2.72;1.60;;;30.50;97.60;;;;;;5134184;27;20019;-52
2023/09/16 09:42:51;;;;;;;2.55;1.45;;;30.50;97.20;;;;;;5132467;27;20019;-45
2023/09/16 09:45:18;;;;;;;2.28;1.40;;;30.80;97.10;;;;;;5134126;27;20023;-52
2023/09/16 09:47:46;;;;;;;2.07;1.30;;;30.80;96.00;;;;;;5133925;27;20088;-56
2023/09/16 09:50:16;;;;;;;2.37;1.53;;;30.90;96.80;;;;;;5133969;27;20263;-47
2023/09/16 09:52:50;;;;;;;2.80;1.60;;;30.90;95.30;;;;;;5133843;27;20076;-44
2023/09/16 09:55:20;;;;;;;3.45;1.40;;;30.90;94.90;;;;;;5134077;27;20023;-57
2023/09/16 09:57:47;;;;;;;2.25;1.42;;;31.00;94.70;;;;;;5133751;27;20050;-50
2023/09/16 10:00:17;;;;;;;2.00;1.13;;;30.90;95.80;;;;;;5133655;27;20015;-53
2023/09/16 10:02:44;;;;;;;2.90;1.40;;;31.20;94.00;;;;;;5133649;27;20540;-47
2023/09/16 10:05:15;;;;;;;2.40;1.13;;;31.60;93.30;;;;;;5133693;27;20019;-47
2023/09/16 10:07:42;;;;;;;1.75;1.10;;;31.90;94.20;;;;;;5133853;27;20122;-47
2023/09/16 10:10:12;;;;;;;3.65;1.20;;;31.80;93.50;;;;;;5133404;27;20468;-50
2023/09/16 10:12:39;;;;;;;1.83;1.17;;;32.00;93.20;;;;;;5133568;27;20031;-56
2023/09/16 10:15:08;;;;;;;3.10;1.30;;;32.30;94.00;;;;;;5133272;27;20476;-48
2023/09/16 10:17:34;;;;;;;2.70;1.40;;;32.40;92.30;;;;;;5133365;27;20027;-47
2023/09/16 10:20:00;;;;;;;2.42;1.65;;;32.60;91.80;;;;;;5122171;27;20032;-45
2023/09/16 10:22:26;;;;;;;3.05;1.10;;;32.60;91.30;;;;;;5130354;27;20045;-45
2023/09/16 10:24:52;;;;;;;2.75;1.40;;;33.00;92.70;;;;;;5133619;27;20102;-47
2023/09/16 10:27:21;;;;;;;2.72;1.50;;;32.70;90.70;;;;;;5133226;27;20069;-45
2023/09/16 10:29:48;;;;;;;3.00;1.35;;;32.30;90.70;;;;;;5133270;27;20027;-44
2023/09/16 10:32:16;;;;;;;4.97;1.67;;;32.40;91.60;;;;;;5133049;27;20499;-55
2023/09/16 10:34:44;;;;;;;3.07;1.10;;;32.40;90.90;;;;;;5133385;27;20129;-60
2023/09/16 10:37:10;;;;;;;1.83;1.17;;;32.50;90.80;;;;;;5133003;27;20035;-50
2023/09/16 10:39:38;;;;;;;3.00;1.42;;;32.30;88.10;;;;;;5133054;27;20410;-57
2023/09/16 10:42:04;;;;;;;;;;;32.20;90.00;;;;;;5133655;27;20023;-48
2023/09/16 10:44:31;;;;;;;2.63;1.30;;;32.30;91.00;;;;;;5132827;27;20399;-58
2023/09/16 10:46:58;;;;;;;3.47;1.30;;;32.30;90.60;;;;;;5133120;27;20031;-54
2023/09/16 10:49:24;;;;;;;4.63;1.30;;;32.20;89.90;;;;;;5132815;27;20023;-55
2023/09/16 10:51:51;;;;;;;2.15;1.30;;;32.50;89.90;;;;;;5132889;27;20042;-58
2023/09/16 10:54:23;;;;;;;2.30;1.38;;;32.30;85.90;;;;;;5132381;27;20024;-55
2023/09/16 10:56:50;;;;;;;2.08;1.10;;;32.40;87.80;;;;;;5132644;27;20421;-48
2023/09/16 10:59:18;;;;;;;3.65;1.50;;;32.60;86.40;;;;;;5132585;27;20023;-44
2023/09/16 11:01:57;;;;;;;4.32;1.30;;;32.70;87.10;;;;;;5118393;27;20084;-44
2023/09/16 11:04:23;;;;;;;2.22;1.15;;;32.70;86.70;;;;;;5130561;27;20419;-44
2023/09/16 11:06:50;;;;;;;2.03;1.30;;;32.40;87.10;;;;;;5113468;27;20019;-44
2023/09/16 11:09:20;;;;;;;2.10;1.40;;;32.20;83.30;;;;;;5111791;28;20472;-44
2023/09/16 11:11:48;;;;;;;2.80;1.25;;;32.00;80.70;;;;;;5116348;27;20037;-44
2023/09/16 11:14:15;;;;;;;3.10;1.30;;;31.80;82.30;;;;;;5117778;27;20019;-44
2023/09/16 11:16:48;;;;;;;2.08;1.20;;;32.00;84.20;;;;;;5123113;27;20027;-45
2023/09/16 11:19:15;;;;;;;2.20;1.30;;;32.30;80.70;;;;;;5119013;27;20023;-44
2023/09/16 11:21:43;;;;;;;2.80;1.40;;;32.40;83.80;;;;;;5118741;27;20027;-44
2023/09/16 11:24:10;;;;;;;2.88;1.40;;;32.50;81.20;;;;;;5126159;27;20468;-44
2023/09/16 11:26:39;;;;;;;2.22;1.17;;;32.30;79.00;;;;;;5130348;27;20466;-44
2023/09/16 11:29:25;;;;;;;1.73;1.00;;;32.30;78.60;;;;;;5130926;27;20053;-44
2023/09/16 11:31:54;;;;;;;2.17;1.20;;;31.40;78.60;;;;;;5121059;27;20123;-44
2023/09/16 11:34:20;;;;;;;;;;;31.80;83.10;;;;;;5111573;28;20111;-44
2023/09/16 11:36:54;;;;;;;3.17;1.23;;;31.40;79.30;;;;;;5111439;28;20006;-44
2023/09/16 11:39:42;;;;;;;1.52;1.00;;;31.20;78.20;;;;;;5111023;28;20047;-44
2023/09/16 11:42:08;;;;;;;3.00;1.33;;;30.70;76.50;;;;;;5111427;28;20043;-47
2023/09/16 11:44:36;;;;;;;2.00;1.33;;;29.80;76.90;;;;;;5110930;28;20557;-44
2023/09/16 11:47:03;;;;;;;2.65;0.90;;;29.50;79.40;;;;;;5111015;28;20038;-43
2023/09/16 11:49:34;;;;;;;2.85;1.10;;;29.30;79.80;;;;;;5111407;28;20024;-44
2023/09/16 11:52:01;;;;;;;1.65;1.10;;;29.00;80.50;;;;;;5117294;27;20110;-50
2023/09/16 11:54:27;;;;;;;1.63;1.05;;;29.30;84.50;;;;;;5129160;27;20579;-52
2023/09/16 11:56:57;;;;;;;2.03;1.30;;;29.50;80.10;;;;;;5130772;27;20051;-43
2023/09/16 11:59:24;;;;;;;2.50;1.17;;;29.40;80.90;;;;;;5117844;27;20110;-51
2023/09/16 12:01:50;;;;;;;2.90;1.20;;;29.60;81.70;;;;;;5113422;28;20426;-58
2023/09/16 12:04:17;;;;;;;3.28;1.38;;;29.00;80.80;;;;;;5114125;27;20119;-51
2023/09/16 12:06:44;;;;;;;3.42;1.40;;;28.70;82.20;;;;;;5116819;27;20036;-55
2023/09/16 12:09:15;;;;;;;1.80;1.10;;;28.70;86.40;;;;;;5116664;28;20023;-50
2023/09/16 12:11:41;;;;;;;2.20;1.30;;;28.90;85.00;;;;;;5117617;28;20027;-50
2023/09/16 12:14:07;;;;;;;2.47;1.45;;;29.20;85.60;;;;;;5111318;27;20102;-53
2023/09/16 12:16:35;;;;;;;2.67;1.33;;;29.20;84.50;;;;;;5111294;27;20067;-53
2023/09/16 12:19:02;;;;;;;2.70;1.42;;;29.40;84.80;;;;;;5110706;28;20369;-51
2023/09/16 12:21:27;;;;;;;2.45;1.35;;;29.40;84.40;;;;;;5110767;28;20024;-54
2023/09/16 12:23:54;;;;;;;2.30;1.40;;;29.30;82.80;;;;;;5110591;28;20026;-55
2023/09/16 12:26:20;;;;;;;3.15;1.27;;;29.00;84.10;;;;;;5110625;28;20020;-50
2023/09/16 12:28:46;;;;;;;2.25;1.40;;;29.00;83.20;;;;;;5110646;27;21451;-49
2023/09/16 12:31:12;;;;;;;1.70;1.17;;;28.90;82.40;;;;;;5110614;28;20044;-53
2023/09/16 12:33:53;;;;;;;1.50;1.10;;;29.00;81.90;;;;;;5110872;28;20031;-50
2023/09/16 12:36:29;;;;;;;1.55;1.08;;;28.80;79.80;;;;;;5110520;28;20023;-49
2023/09/16 12:38:56;;;;;;;2.15;1.05;;;28.40;78.70;;;;;;5110663;28;20043;-50
2023/09/16 12:41:25;;;;;;;2.15;1.25;;;28.50;81.30;;;;;;5111511;27;20376;-52